Hovedside
METAR-TAF:

METAR-TAF

Lufthavner :

Bend, Oregon, USA

breddegrad: 44-05-40N, lengdegrad: 121-12-00W, høyde over havet: 1055 m

Gjeldene værobservasjon

Denne rapporten ble laget for 29 minutter siden, klokken 09:55 UTC
Vind 3 kt fra Sør-sørvest
Temperatur -5°C
Luftfuktighet 86%
Trykk 1023 hPa
Sikt: 16.1 km
Skyfri himmel

METAR: KBDN 190955Z AUTO 20003KT 10SM CLR M05/M07 A3022 RMK AO2

Tid: 02:24 (10:24 UTC)

Varsel

Denne rapporten ble laget for 5 timer og 4 minutter siden, klokken 05:20 UTC
Varsel gyldig fra 19. klokken 06 UTC til 20. klokken 06 UTC
Vind 3 kt fra skiftende retning
Sikt: 10 km
Skyfri himmel
Fra 19. klokken 1100 UTC
Vind 3 kt fra skiftende retning
Sikt: 8.0 km
Skyfri himmel
dis
Fra 19. klokken 1700 UTC
Vind 3 kt fra skiftende retning
Sikt: 10 km
Skyfri himmel
Fra 19. klokken 2200 UTC
Vind 5 kt fra Nord
Sikt: 10 km
Skyfri himmel

TAF: KBDN 190520Z 1906/2006 VRB03KT P6SM SKC FM191100 VRB03KT 5SM BR SKC FM191700 VRB03KT P6SM SKC FM192200 35005KT P6SM SKC

Værobservasjoner og værvarsel for over 4000 flyplasser (METAR- og TAF-rapporter).

Tilgjengelige stasjoner er representert av de røde og gule prikkene på kartet.

Hold musepekeren over prikken for å se navnet på stasjonen.

Klikk så for å se værobservasjoner og -varsler.

For å forandre kartet kan du klikke på den grønne knappen med svart kryss for å zoome inn, på den grønne knappen med strek for å zoome ut, eller på de grønne pilene for å se tilstøtende kart.


METAR-TAF: